sensor_id;sensor_type;location;lat;lon;timestamp;temperature;humidity
69162;DHT22;56269;51.738;21.652;2024-02-21T00:00:08;4.23;99.99
69162;DHT22;56269;51.738;21.652;2024-02-21T00:02:56;4.19;99.79
69162;DHT22;56269;51.738;21.652;2024-02-21T00:05:25;4.14;99.99
69162;DHT22;56269;51.738;21.652;2024-02-21T00:07:51;4.09;99.99
69162;DHT22;56269;51.738;21.652;2024-02-21T00:10:18;4.06;99.99
69162;DHT22;56269;51.738;21.652;2024-02-21T00:12:44;4.02;99.99
69162;DHT22;56269;51.738;21.652;2024-02-21T00:15:10;3.95;99.99
69162;DHT22;56269;51.738;21.652;2024-02-21T00:17:37;3.98;99.99
69162;DHT22;56269;51.738;21.652;2024-02-21T00:20:03;3.94;99.99
69162;DHT22;56269;51.738;21.652;2024-02-21T00:22:30;3.94;99.99
69162;DHT22;56269;51.738;21.652;2024-02-21T00:24:59;3.95;99.99
69162;DHT22;56269;51.738;21.652;2024-02-21T00:27:25;3.95;99.99
69162;DHT22;56269;51.738;21.652;2024-02-21T00:29:52;3.90;99.99
69162;DHT22;56269;51.738;21.652;2024-02-21T00:32:18;3.90;99.99
69162;DHT22;56269;51.738;21.652;2024-02-21T00:34:44;3.90;99.99
69162;DHT22;56269;51.738;21.652;2024-02-21T00:37:10;3.85;99.99
69162;DHT22;56269;51.738;21.652;2024-02-21T00:39:36;3.85;99.99
69162;DHT22;56269;51.738;21.652;2024-02-21T00:42:03;3.87;99.99
69162;DHT22;56269;51.738;21.652;2024-02-21T00:44:29;3.90;99.99
69162;DHT22;56269;51.738;21.652;2024-02-21T00:46:55;3.88;99.99
69162;DHT22;56269;51.738;21.652;2024-02-21T00:49:21;3.84;99.99
69162;DHT22;56269;51.738;21.652;2024-02-21T00:51:47;3.85;99.99
69162;DHT22;56269;51.738;21.652;2024-02-21T00:54:14;3.84;99.99
69162;DHT22;56269;51.738;21.652;2024-02-21T00:56:40;3.85;99.99
69162;DHT22;56269;51.738;21.652;2024-02-21T00:59:06;3.88;99.99
69162;DHT22;56269;51.738;21.652;2024-02-21T01:01:32;3.85;99.99
69162;DHT22;56269;51.738;21.652;2024-02-21T01:03:58;3.85;99.99
69162;DHT22;56269;51.738;21.652;2024-02-21T01:06:25;3.87;99.99
69162;DHT22;56269;51.738;21.652;2024-02-21T01:08:51;3.87;99.99
69162;DHT22;56269;51.738;21.652;2024-02-21T01:11:17;3.87;99.99
69162;DHT22;56269;51.738;21.652;2024-02-21T01:13:44;3.87;99.99
69162;DHT22;56269;51.738;21.652;2024-02-21T01:16:10;3.87;99.99
69162;DHT22;56269;51.738;21.652;2024-02-21T01:18:39;3.84;99.99
69162;DHT22;56269;51.738;21.652;2024-02-21T01:21:06;3.85;99.99
69162;DHT22;56269;51.738;21.652;2024-02-21T01:23:34;3.84;99.99
69162;DHT22;56269;51.738;21.652;2024-02-21T01:26:01;3.85;99.99
69162;DHT22;56269;51.738;21.652;2024-02-21T01:28:27;3.87;99.99
69162;DHT22;56269;51.738;21.652;2024-02-21T01:30:53;3.81;99.99
69162;DHT22;56269;51.738;21.652;2024-02-21T01:33:19;3.84;99.99
69162;DHT22;56269;51.738;21.652;2024-02-21T01:35:45;3.82;99.99
69162;DHT22;56269;51.738;21.652;2024-02-21T01:38:13;3.81;99.99
69162;DHT22;56269;51.738;21.652;2024-02-21T01:40:39;3.81;99.99
69162;DHT22;56269;51.738;21.652;2024-02-21T01:43:15;3.78;99.99
69162;DHT22;56269;51.738;21.652;2024-02-21T01:45:48;3.77;99.99
69162;DHT22;56269;51.738;21.652;2024-02-21T01:48:16;3.78;99.99
69162;DHT22;56269;51.738;21.652;2024-02-21T01:50:46;3.80;99.99
69162;DHT22;56269;51.738;21.652;2024-02-21T01:53:25;3.80;99.99
69162;DHT22;56269;51.738;21.652;2024-02-21T01:55:53;3.80;99.99
69162;DHT22;56269;51.738;21.652;2024-02-21T01:58:19;3.78;99.99
69162;DHT22;56269;51.738;21.652;2024-02-21T02:00:47;3.74;99.99
69162;DHT22;56269;51.738;21.652;2024-02-21T02:03:14;3.80;99.99
69162;DHT22;56269;51.738;21.652;2024-02-21T02:05:44;3.82;99.99
69162;DHT22;56269;51.738;21.652;2024-02-21T02:08:15;3.84;99.99
69162;DHT22;56269;51.738;21.652;2024-02-21T02:10:42;3.81;99.99
69162;DHT22;56269;51.738;21.652;2024-02-21T02:13:08;3.78;99.99
69162;DHT22;56269;51.738;21.652;2024-02-21T02:15:43;3.77;99.99
69162;DHT22;56269;51.738;21.652;2024-02-21T02:18:10;3.75;99.99
69162;DHT22;56269;51.738;21.652;2024-02-21T02:20:36;3.75;99.99
69162;DHT22;56269;51.738;21.652;2024-02-21T02:23:31;3.75;99.99
69162;DHT22;56269;51.738;21.652;2024-02-21T02:26:00;3.73;99.99
69162;DHT22;56269;51.738;21.652;2024-02-21T02:28:29;3.74;99.99
69162;DHT22;56269;51.738;21.652;2024-02-21T02:30:55;3.75;99.99
69162;DHT22;56269;51.738;21.652;2024-02-21T02:33:21;3.74;99.99
69162;DHT22;56269;51.738;21.652;2024-02-21T02:35:47;3.75;99.99
69162;DHT22;56269;51.738;21.652;2024-02-21T02:38:13;3.74;99.99
69162;DHT22;56269;51.738;21.652;2024-02-21T02:40:41;3.71;99.99
69162;DHT22;56269;51.738;21.652;2024-02-21T02:43:07;3.71;99.99
69162;DHT22;56269;51.738;21.652;2024-02-21T02:45:34;3.73;99.99
69162;DHT22;56269;51.738;21.652;2024-02-21T02:48:00;3.74;99.99
69162;DHT22;56269;51.738;21.652;2024-02-21T02:50:27;3.71;99.99
69162;DHT22;56269;51.738;21.652;2024-02-21T02:52:54;3.74;99.99
69162;DHT22;56269;51.738;21.652;2024-02-21T02:55:20;3.73;99.99
69162;DHT22;56269;51.738;21.652;2024-02-21T02:57:46;3.73;99.99
69162;DHT22;56269;51.738;21.652;2024-02-21T03:00:14;3.71;99.99
69162;DHT22;56269;51.738;21.652;2024-02-21T03:02:42;3.70;99.99
69162;DHT22;56269;51.738;21.652;2024-02-21T03:05:19;3.74;99.99
69162;DHT22;56269;51.738;21.652;2024-02-21T03:07:46;3.75;99.99
69162;DHT22;56269;51.738;21.652;2024-02-21T03:10:13;3.78;99.99
69162;DHT22;56269;51.738;21.652;2024-02-21T03:12:40;3.77;99.99
69162;DHT22;56269;51.738;21.652;2024-02-21T03:15:06;3.75;99.99
69162;DHT22;56269;51.738;21.652;2024-02-21T03:17:32;3.77;99.99
69162;DHT22;56269;51.738;21.652;2024-02-21T03:20:01;3.78;99.99
69162;DHT22;56269;51.738;21.652;2024-02-21T03:22:33;3.78;99.99
69162;DHT22;56269;51.738;21.652;2024-02-21T03:25:00;3.78;99.99
69162;DHT22;56269;51.738;21.652;2024-02-21T03:27:26;3.80;99.99
69162;DHT22;56269;51.738;21.652;2024-02-21T03:29:53;3.82;99.99
69162;DHT22;56269;51.738;21.652;2024-02-21T03:32:19;3.84;99.99
69162;DHT22;56269;51.738;21.652;2024-02-21T03:34:45;3.78;99.99
69162;DHT22;56269;51.738;21.652;2024-02-21T03:37:11;3.77;99.99
69162;DHT22;56269;51.738;21.652;2024-02-21T03:39:37;3.81;99.99
69162;DHT22;56269;51.738;21.652;2024-02-21T03:42:03;3.77;99.99
69162;DHT22;56269;51.738;21.652;2024-02-21T03:44:31;3.75;99.99
69162;DHT22;56269;51.738;21.652;2024-02-21T03:46:58;3.74;99.99
69162;DHT22;56269;51.738;21.652;2024-02-21T03:49:25;3.75;99.99
69162;DHT22;56269;51.738;21.652;2024-02-21T03:51:51;3.75;99.99
69162;DHT22;56269;51.738;21.652;2024-02-21T03:54:19;3.75;99.99
69162;DHT22;56269;51.738;21.652;2024-02-21T03:56:44;3.78;99.99
69162;DHT22;56269;51.738;21.652;2024-02-21T03:59:11;3.80;99.99
69162;DHT22;56269;51.738;21.652;2024-02-21T04:01:43;3.80;99.99
69162;DHT22;56269;51.738;21.652;2024-02-21T04:04:10;3.74;99.99
69162;DHT22;56269;51.738;21.652;2024-02-21T04:06:36;3.75;99.99
69162;DHT22;56269;51.738;21.652;2024-02-21T04:09:02;3.71;99.99
69162;DHT22;56269;51.738;21.652;2024-02-21T04:11:29;3.71;99.99
69162;DHT22;56269;51.738;21.652;2024-02-21T04:13:55;3.73;99.99
69162;DHT22;56269;51.738;21.652;2024-02-21T04:16:21;3.77;99.99
69162;DHT22;56269;51.738;21.652;2024-02-21T04:18:47;3.81;99.99
69162;DHT22;56269;51.738;21.652;2024-02-21T04:21:17;3.78;99.99
69162;DHT22;56269;51.738;21.652;2024-02-21T04:23:43;3.80;99.99
69162;DHT22;56269;51.738;21.652;2024-02-21T04:26:09;3.75;99.99
69162;DHT22;56269;51.738;21.652;2024-02-21T04:28:35;3.78;99.99
69162;DHT22;56269;51.738;21.652;2024-02-21T04:31:01;3.78;99.99
69162;DHT22;56269;51.738;21.652;2024-02-21T04:33:27;3.80;99.99
69162;DHT22;56269;51.738;21.652;2024-02-21T04:35:53;3.85;99.99
69162;DHT22;56269;51.738;21.652;2024-02-21T04:38:21;3.87;99.99
69162;DHT22;56269;51.738;21.652;2024-02-21T04:40:47;3.88;99.99
69162;DHT22;56269;51.738;21.652;2024-02-21T04:43:13;3.90;99.99
69162;DHT22;56269;51.738;21.652;2024-02-21T04:45:39;3.94;99.99
69162;DHT22;56269;51.738;21.652;2024-02-21T04:48:06;3.98;99.99
69162;DHT22;56269;51.738;21.652;2024-02-21T04:50:32;3.97;99.99
69162;DHT22;56269;51.738;21.652;2024-02-21T04:52:58;3.95;99.99
69162;DHT22;56269;51.738;21.652;2024-02-21T04:55:24;3.97;99.99
69162;DHT22;56269;51.738;21.652;2024-02-21T04:57:50;3.99;99.99
69162;DHT22;56269;51.738;21.652;2024-02-21T05:00:16;3.94;99.99
69162;DHT22;56269;51.738;21.652;2024-02-21T05:02:43;3.94;99.99
69162;DHT22;56269;51.738;21.652;2024-02-21T05:05:09;3.88;99.99
69162;DHT22;56269;51.738;21.652;2024-02-21T05:07:35;3.91;99.99
69162;DHT22;56269;51.738;21.652;2024-02-21T05:10:01;3.87;99.99
69162;DHT22;56269;51.738;21.652;2024-02-21T05:12:27;3.88;99.99
69162;DHT22;56269;51.738;21.652;2024-02-21T05:14:54;3.90;99.99
69162;DHT22;56269;51.738;21.652;2024-02-21T05:17:20;3.90;99.99
69162;DHT22;56269;51.738;21.652;2024-02-21T05:19:46;3.92;99.99
69162;DHT22;56269;51.738;21.652;2024-02-21T05:22:12;3.94;99.99
69162;DHT22;56269;51.738;21.652;2024-02-21T05:24:39;3.92;99.99
69162;DHT22;56269;51.738;21.652;2024-02-21T05:27:06;3.91;99.99
69162;DHT22;56269;51.738;21.652;2024-02-21T05:29:33;3.84;99.99
69162;DHT22;56269;51.738;21.652;2024-02-21T05:32:02;3.84;99.99
69162;DHT22;56269;51.738;21.652;2024-02-21T05:34:28;3.77;99.99
69162;DHT22;56269;51.738;21.652;2024-02-21T05:36:54;3.77;99.99
69162;DHT22;56269;51.738;21.652;2024-02-21T05:39:20;3.73;99.99
69162;DHT22;56269;51.738;21.652;2024-02-21T05:41:49;3.74;99.99
69162;DHT22;56269;51.738;21.652;2024-02-21T05:44:16;3.71;99.99
69162;DHT22;56269;51.738;21.652;2024-02-21T05:46:43;3.66;99.99
69162;DHT22;56269;51.738;21.652;2024-02-21T05:49:09;3.59;99.99
69162;DHT22;56269;51.738;21.652;2024-02-21T05:51:35;3.64;99.99
69162;DHT22;56269;51.738;21.652;2024-02-21T05:54:03;3.66;99.99
69162;DHT22;56269;51.738;21.652;2024-02-21T05:56:34;3.69;99.99
69162;DHT22;56269;51.738;21.652;2024-02-21T05:58:59;3.74;99.99
69162;DHT22;56269;51.738;21.652;2024-02-21T06:01:26;3.80;99.99
69162;DHT22;56269;51.738;21.652;2024-02-21T06:03:52;3.85;99.99
69162;DHT22;56269;51.738;21.652;2024-02-21T06:06:18;3.90;99.99
69162;DHT22;56269;51.738;21.652;2024-02-21T06:08:44;3.92;99.99
69162;DHT22;56269;51.738;21.652;2024-02-21T06:11:10;3.94;99.99
69162;DHT22;56269;51.738;21.652;2024-02-21T06:13:38;4.01;99.99
69162;DHT22;56269;51.738;21.652;2024-02-21T06:16:07;4.05;99.99
69162;DHT22;56269;51.738;21.652;2024-02-21T06:18:35;4.08;99.99
69162;DHT22;56269;51.738;21.652;2024-02-21T06:21:03;4.16;99.99
69162;DHT22;56269;51.738;21.652;2024-02-21T06:23:29;4.18;99.99
69162;DHT22;56269;51.738;21.652;2024-02-21T06:25:55;4.22;99.99
69162;DHT22;56269;51.738;21.652;2024-02-21T06:28:21;4.22;99.99
69162;DHT22;56269;51.738;21.652;2024-02-21T06:30:47;4.26;99.99
69162;DHT22;56269;51.738;21.652;2024-02-21T06:33:13;4.33;99.99
69162;DHT22;56269;51.738;21.652;2024-02-21T06:35:40;4.39;99.99
69162;DHT22;56269;51.738;21.652;2024-02-21T06:38:08;4.42;99.99
69162;DHT22;56269;51.738;21.652;2024-02-21T06:40:34;4.43;99.99
69162;DHT22;56269;51.738;21.652;2024-02-21T06:43:05;4.49;99.99
69162;DHT22;56269;51.738;21.652;2024-02-21T06:45:31;4.50;99.99
69162;DHT22;56269;51.738;21.652;2024-02-21T06:47:57;4.55;99.99
69162;DHT22;56269;51.738;21.652;2024-02-21T06:50:24;4.59;99.99
69162;DHT22;56269;51.738;21.652;2024-02-21T06:52:50;4.57;99.99
69162;DHT22;56269;51.738;21.652;2024-02-21T06:55:16;4.62;99.99
69162;DHT22;56269;51.738;21.652;2024-02-21T06:57:42;4.65;99.99
69162;DHT22;56269;51.738;21.652;2024-02-21T07:00:09;4.65;99.99
69162;DHT22;56269;51.738;21.652;2024-02-21T07:02:35;4.67;99.99
69162;DHT22;56269;51.738;21.652;2024-02-21T07:05:02;4.72;99.99
69162;DHT22;56269;51.738;21.652;2024-02-21T07:07:28;4.73;99.99
69162;DHT22;56269;51.738;21.652;2024-02-21T07:09:55;4.77;99.99
69162;DHT22;56269;51.738;21.652;2024-02-21T07:12:21;4.76;99.99
69162;DHT22;56269;51.738;21.652;2024-02-21T07:14:48;4.80;99.99
69162;DHT22;56269;51.738;21.652;2024-02-21T07:17:14;4.80;99.99
69162;DHT22;56269;51.738;21.652;2024-02-21T07:19:40;4.86;99.99
69162;DHT22;56269;51.738;21.652;2024-02-21T07:22:06;4.86;99.99
69162;DHT22;56269;51.738;21.652;2024-02-21T07:24:32;4.90;99.99
69162;DHT22;56269;51.738;21.652;2024-02-21T07:26:58;4.97;99.99
69162;DHT22;56269;51.738;21.652;2024-02-21T07:29:30;4.97;99.99
69162;DHT22;56269;51.738;21.652;2024-02-21T07:31:56;5.06;99.99
69162;DHT22;56269;51.738;21.652;2024-02-21T07:34:23;5.01;99.99
69162;DHT22;56269;51.738;21.652;2024-02-21T07:36:49;5.07;99.99
69162;DHT22;56269;51.738;21.652;2024-02-21T07:39:15;5.10;99.99
69162;DHT22;56269;51.738;21.652;2024-02-21T07:41:42;5.21;99.99
69162;DHT22;56269;51.738;21.652;2024-02-21T07:44:11;5.37;99.99
69162;DHT22;56269;51.738;21.652;2024-02-21T07:46:36;5.42;99.99
69162;DHT22;56269;51.738;21.652;2024-02-21T07:49:03;5.66;99.99
69162;DHT22;56269;51.738;21.652;2024-02-21T07:51:29;5.79;99.99
69162;DHT22;56269;51.738;21.652;2024-02-21T07:53:55;5.80;99.63
69162;DHT22;56269;51.738;21.652;2024-02-21T07:56:21;5.83;99.35
69162;DHT22;56269;51.738;21.652;2024-02-21T07:58:48;5.95;99.44
69162;DHT22;56269;51.738;21.652;2024-02-21T08:01:20;5.96;99.15
69162;DHT22;56269;51.738;21.652;2024-02-21T08:03:47;5.88;98.78
69162;DHT22;56269;51.738;21.652;2024-02-21T08:06:13;5.83;99.26
69162;DHT22;56269;51.738;21.652;2024-02-21T08:08:40;5.78;99.78
69162;DHT22;56269;51.738;21.652;2024-02-21T08:11:06;5.70;99.99
69162;DHT22;56269;51.738;21.652;2024-02-21T08:13:32;5.68;99.99
69162;DHT22;56269;51.738;21.652;2024-02-21T08:15:58;5.60;99.83
69162;DHT22;56269;51.738;21.652;2024-02-21T08:18:25;5.62;99.29
69162;DHT22;56269;51.738;21.652;2024-02-21T08:20:52;5.72;99.09
69162;DHT22;56269;51.738;21.652;2024-02-21T08:23:19;5.80;98.89
69162;DHT22;56269;51.738;21.652;2024-02-21T08:25:44;5.73;98.82
69162;DHT22;56269;51.738;21.652;2024-02-21T08:28:11;5.72;99.12
69162;DHT22;56269;51.738;21.652;2024-02-21T08:30:38;5.63;99.33
69162;DHT22;56269;51.738;21.652;2024-02-21T08:33:04;5.62;99.59
69162;DHT22;56269;51.738;21.652;2024-02-21T08:35:31;5.72;99.74
69162;DHT22;56269;51.738;21.652;2024-02-21T08:37:58;5.75;99.19
69162;DHT22;56269;51.738;21.652;2024-02-21T08:40:24;5.70;99.23
69162;DHT22;56269;51.738;21.652;2024-02-21T08:42:50;5.76;99.63
69162;DHT22;56269;51.738;21.652;2024-02-21T08:45:16;5.75;99.37
69162;DHT22;56269;51.738;21.652;2024-02-21T08:47:43;5.70;99.53
69162;DHT22;56269;51.738;21.652;2024-02-21T08:50:10;5.70;99.67
69162;DHT22;56269;51.738;21.652;2024-02-21T08:52:37;5.73;99.81
69162;DHT22;56269;51.738;21.652;2024-02-21T08:55:03;5.70;99.87
69162;DHT22;56269;51.738;21.652;2024-02-21T08:57:30;5.69;99.67
69162;DHT22;56269;51.738;21.652;2024-02-21T09:00:05;5.72;99.42
69162;DHT22;56269;51.738;21.652;2024-02-21T09:02:39;5.76;99.71
69162;DHT22;56269;51.738;21.652;2024-02-21T09:05:05;5.75;99.52
69162;DHT22;56269;51.738;21.652;2024-02-21T09:07:32;5.75;99.45
69162;DHT22;56269;51.738;21.652;2024-02-21T09:09:58;5.79;99.76
69162;DHT22;56269;51.738;21.652;2024-02-21T09:12:24;5.86;99.84
69162;DHT22;56269;51.738;21.652;2024-02-21T09:14:51;5.86;99.04
69162;DHT22;56269;51.738;21.652;2024-02-21T09:17:17;5.95;99.05
69162;DHT22;56269;51.738;21.652;2024-02-21T09:19:44;6.05;98.99
69162;DHT22;56269;51.738;21.652;2024-02-21T09:22:10;6.14;98.41
69162;DHT22;56269;51.738;21.652;2024-02-21T09:24:36;6.26;98.44
69162;DHT22;56269;51.738;21.652;2024-02-21T09:27:03;6.29;97.90
69162;DHT22;56269;51.738;21.652;2024-02-21T09:29:29;6.38;97.90
69162;DHT22;56269;51.738;21.652;2024-02-21T09:31:55;6.52;97.69
69162;DHT22;56269;51.738;21.652;2024-02-21T09:34:21;6.58;97.67
69162;DHT22;56269;51.738;21.652;2024-02-21T09:36:47;6.61;97.22
69162;DHT22;56269;51.738;21.652;2024-02-21T09:39:13;6.81;97.07
69162;DHT22;56269;51.738;21.652;2024-02-21T09:41:53;6.95;96.67
69162;DHT22;56269;51.738;21.652;2024-02-21T09:44:22;7.11;96.60
69162;DHT22;56269;51.738;21.652;2024-02-21T09:46:56;7.13;95.26
69162;DHT22;56269;51.738;21.652;2024-02-21T09:49:30;7.12;95.15
69162;DHT22;56269;51.738;21.652;2024-02-21T09:52:01;7.22;96.33
69162;DHT22;56269;51.738;21.652;2024-02-21T09:54:30;7.20;95.61
69162;DHT22;56269;51.738;21.652;2024-02-21T09:56:59;7.24;95.97
69162;DHT22;56269;51.738;21.652;2024-02-21T09:59:27;7.22;95.18
69162;DHT22;56269;51.738;21.652;2024-02-21T10:01:54;7.23;95.73
69162;DHT22;56269;51.738;21.652;2024-02-21T10:04:21;7.26;95.32
69162;DHT22;56269;51.738;21.652;2024-02-21T10:06:47;7.39;94.99
69162;DHT22;56269;51.738;21.652;2024-02-21T10:09:23;7.32;94.96
69162;DHT22;56269;51.738;21.652;2024-02-21T10:11:50;7.32;95.20
69162;DHT22;56269;51.738;21.652;2024-02-21T10:14:17;7.33;95.14
69162;DHT22;56269;51.738;21.652;2024-02-21T10:16:48;7.50;95.08
69162;DHT22;56269;51.738;21.652;2024-02-21T10:19:19;7.43;94.94
69162;DHT22;56269;51.738;21.652;2024-02-21T10:22:08;7.54;95.21
69162;DHT22;56269;51.738;21.652;2024-02-21T10:24:35;7.60;95.20
69162;DHT22;56269;51.738;21.652;2024-02-21T10:27:07;7.46;94.37
69162;DHT22;56269;51.738;21.652;2024-02-21T10:29:40;7.59;94.03
69162;DHT22;56269;51.738;21.652;2024-02-21T10:32:08;7.59;93.56
69162;DHT22;56269;51.738;21.652;2024-02-21T10:34:35;7.57;94.62
69162;DHT22;56269;51.738;21.652;2024-02-21T10:37:03;7.59;94.69
69162;DHT22;56269;51.738;21.652;2024-02-21T10:39:31;7.64;93.97
69162;DHT22;56269;51.738;21.652;2024-02-21T10:42:00;7.75;93.75
69162;DHT22;56269;51.738;21.652;2024-02-21T10:44:28;7.77;92.44
69162;DHT22;56269;51.738;21.652;2024-02-21T10:46:57;7.83;92.64
69162;DHT22;56269;51.738;21.652;2024-02-21T10:49:24;7.70;92.48
69162;DHT22;56269;51.738;21.652;2024-02-21T10:54:48;7.67;92.69
69162;DHT22;56269;51.738;21.652;2024-02-21T10:57:19;7.62;92.18
69162;DHT22;56269;51.738;21.652;2024-02-21T10:59:48;7.63;92.51
69162;DHT22;56269;51.738;21.652;2024-02-21T11:02:15;7.66;93.56
69162;DHT22;56269;51.738;21.652;2024-02-21T11:04:42;7.71;93.49
69162;DHT22;56269;51.738;21.652;2024-02-21T11:07:09;7.73;92.59
69162;DHT22;56269;51.738;21.652;2024-02-21T11:09:35;7.80;92.37
69162;DHT22;56269;51.738;21.652;2024-02-21T11:12:05;7.78;92.90
69162;DHT22;56269;51.738;21.652;2024-02-21T11:14:32;7.85;93.09
69162;DHT22;56269;51.738;21.652;2024-02-21T11:16:59;7.75;92.15
69162;DHT22;56269;51.738;21.652;2024-02-21T11:19:26;7.84;92.87
69162;DHT22;56269;51.738;21.652;2024-02-21T11:21:54;7.74;92.16
69162;DHT22;56269;51.738;21.652;2024-02-21T11:27:08;7.83;93.05
69162;DHT22;56269;51.738;21.652;2024-02-21T11:29:46;7.88;93.09
69162;DHT22;56269;51.738;21.652;2024-02-21T11:32:16;7.85;92.96
69162;DHT22;56269;51.738;21.652;2024-02-21T11:35:01;7.78;93.00
69162;DHT22;56269;51.738;21.652;2024-02-21T11:37:31;7.83;93.43
69162;DHT22;56269;51.738;21.652;2024-02-21T11:39:59;7.99;94.12
69162;DHT22;56269;51.738;21.652;2024-02-21T11:42:27;7.95;93.02
69162;DHT22;56269;51.738;21.652;2024-02-21T11:44:54;8.01;92.77
69162;DHT22;56269;51.738;21.652;2024-02-21T11:47:25;8.04;92.84
69162;DHT22;56269;51.738;21.652;2024-02-21T11:49:51;7.87;93.06
69162;DHT22;56269;51.738;21.652;2024-02-21T11:52:25;7.91;93.54
69162;DHT22;56269;51.738;21.652;2024-02-21T11:54:51;7.88;93.98
69162;DHT22;56269;51.738;21.652;2024-02-21T11:57:23;7.93;93.91
69162;DHT22;56269;51.738;21.652;2024-02-21T11:59:51;7.97;95.02
69162;DHT22;56269;51.738;21.652;2024-02-21T12:02:18;7.87;94.04
69162;DHT22;56269;51.738;21.652;2024-02-21T12:04:45;7.74;94.32
69162;DHT22;56269;51.738;21.652;2024-02-21T12:07:11;7.83;94.94
69162;DHT22;56269;51.738;21.652;2024-02-21T12:09:37;7.73;95.64
69162;DHT22;56269;51.738;21.652;2024-02-21T12:12:05;7.74;95.65
69162;DHT22;56269;51.738;21.652;2024-02-21T12:14:33;7.80;95.01
69162;DHT22;56269;51.738;21.652;2024-02-21T12:17:01;7.77;94.98
69162;DHT22;56269;51.738;21.652;2024-02-21T12:19:30;7.85;95.25
69162;DHT22;56269;51.738;21.652;2024-02-21T12:21:59;7.80;95.50
69162;DHT22;56269;51.738;21.652;2024-02-21T12:24:27;7.71;95.36
69162;DHT22;56269;51.738;21.652;2024-02-21T12:26:55;7.70;96.03
69162;DHT22;56269;51.738;21.652;2024-02-21T12:29:24;7.63;96.29
69162;DHT22;56269;51.738;21.652;2024-02-21T12:31:51;7.62;95.37
69162;DHT22;56269;51.738;21.652;2024-02-21T12:34:18;7.67;96.44
69162;DHT22;56269;51.738;21.652;2024-02-21T12:36:45;7.60;96.27
69162;DHT22;56269;51.738;21.652;2024-02-21T12:39:13;7.60;95.86
69162;DHT22;56269;51.738;21.652;2024-02-21T12:41:40;7.60;97.18
69162;DHT22;56269;51.738;21.652;2024-02-21T12:44:07;7.54;97.08
69162;DHT22;56269;51.738;21.652;2024-02-21T12:46:37;7.57;97.52
69162;DHT22;56269;51.738;21.652;2024-02-21T12:49:04;7.49;98.12
69162;DHT22;56269;51.738;21.652;2024-02-21T12:51:31;7.44;98.17
69162;DHT22;56269;51.738;21.652;2024-02-21T12:53:57;7.37;98.62
69162;DHT22;56269;51.738;21.652;2024-02-21T12:56:25;7.43;98.47
69162;DHT22;56269;51.738;21.652;2024-02-21T12:58:57;7.34;98.09
69162;DHT22;56269;51.738;21.652;2024-02-21T13:01:23;7.39;98.87
69162;DHT22;56269;51.738;21.652;2024-02-21T13:03:49;7.56;98.81
69162;DHT22;56269;51.738;21.652;2024-02-21T13:06:16;7.40;98.28
69162;DHT22;56269;51.738;21.652;2024-02-21T13:08:42;7.54;98.48
69162;DHT22;56269;51.738;21.652;2024-02-21T13:11:10;7.52;98.44
69162;DHT22;56269;51.738;21.652;2024-02-21T13:13:36;7.46;98.30
69162;DHT22;56269;51.738;21.652;2024-02-21T13:16:03;7.44;98.66
69162;DHT22;56269;51.738;21.652;2024-02-21T13:18:29;7.37;99.03
69162;DHT22;56269;51.738;21.652;2024-02-21T13:20:56;7.34;98.83
69162;DHT22;56269;51.738;21.652;2024-02-21T13:23:22;7.23;99.19
69162;DHT22;56269;51.738;21.652;2024-02-21T13:25:48;7.20;98.76
69162;DHT22;56269;51.738;21.652;2024-02-21T13:28:15;7.12;99.30
69162;DHT22;56269;51.738;21.652;2024-02-21T13:30:43;7.15;99.88
69162;DHT22;56269;51.738;21.652;2024-02-21T13:33:09;7.13;99.99
69162;DHT22;56269;51.738;21.652;2024-02-21T13:35:36;7.05;99.99
69162;DHT22;56269;51.738;21.652;2024-02-21T13:38:03;7.02;99.99
69162;DHT22;56269;51.738;21.652;2024-02-21T13:40:29;7.01;99.99
69162;DHT22;56269;51.738;21.652;2024-02-21T13:42:55;7.01;99.99
69162;DHT22;56269;51.738;21.652;2024-02-21T13:45:22;6.96;99.99
69162;DHT22;56269;51.738;21.652;2024-02-21T13:47:48;7.01;99.99
69162;DHT22;56269;51.738;21.652;2024-02-21T13:50:15;6.98;99.99
69162;DHT22;56269;51.738;21.652;2024-02-21T13:52:41;6.92;99.99
69162;DHT22;56269;51.738;21.652;2024-02-21T13:55:08;6.92;99.99
69162;DHT22;56269;51.738;21.652;2024-02-21T13:57:38;6.93;99.99
69162;DHT22;56269;51.738;21.652;2024-02-21T14:00:05;6.92;99.99
69162;DHT22;56269;51.738;21.652;2024-02-21T14:02:31;6.95;99.99
69162;DHT22;56269;51.738;21.652;2024-02-21T14:04:58;6.99;99.99
69162;DHT22;56269;51.738;21.652;2024-02-21T14:07:24;6.93;99.99
69162;DHT22;56269;51.738;21.652;2024-02-21T14:09:50;7.03;99.99
69162;DHT22;56269;51.738;21.652;2024-02-21T14:12:16;6.95;99.99
69162;DHT22;56269;51.738;21.652;2024-02-21T14:14:46;6.98;99.99
69162;DHT22;56269;51.738;21.652;2024-02-21T14:17:12;6.93;99.99
69162;DHT22;56269;51.738;21.652;2024-02-21T14:19:39;6.91;99.99
69162;DHT22;56269;51.738;21.652;2024-02-21T14:22:05;6.88;99.99
69162;DHT22;56269;51.738;21.652;2024-02-21T14:24:32;6.92;99.99
69162;DHT22;56269;51.738;21.652;2024-02-21T14:26:58;6.98;99.99
69162;DHT22;56269;51.738;21.652;2024-02-21T14:29:25;6.98;99.99
69162;DHT22;56269;51.738;21.652;2024-02-21T14:31:51;6.96;99.99
69162;DHT22;56269;51.738;21.652;2024-02-21T14:34:18;6.95;99.99
69162;DHT22;56269;51.738;21.652;2024-02-21T14:36:44;6.92;99.99
69162;DHT22;56269;51.738;21.652;2024-02-21T14:39:10;6.91;99.99
69162;DHT22;56269;51.738;21.652;2024-02-21T14:41:36;6.92;99.99
69162;DHT22;56269;51.738;21.652;2024-02-21T14:44:03;6.91;99.99
69162;DHT22;56269;51.738;21.652;2024-02-21T14:46:29;6.82;99.99
69162;DHT22;56269;51.738;21.652;2024-02-21T14:48:56;6.81;99.99
69162;DHT22;56269;51.738;21.652;2024-02-21T14:51:22;6.80;99.99
69162;DHT22;56269;51.738;21.652;2024-02-21T14:53:48;6.78;99.99
69162;DHT22;56269;51.738;21.652;2024-02-21T14:56:17;6.77;99.99
69162;DHT22;56269;51.738;21.652;2024-02-21T14:58:44;6.75;99.99
69162;DHT22;56269;51.738;21.652;2024-02-21T15:01:10;6.74;99.99
69162;DHT22;56269;51.738;21.652;2024-02-21T15:03:39;6.74;99.99
69162;DHT22;56269;51.738;21.652;2024-02-21T15:06:05;6.68;99.99
69162;DHT22;56269;51.738;21.652;2024-02-21T15:08:31;6.67;99.99
69162;DHT22;56269;51.738;21.652;2024-02-21T15:10:57;6.68;99.99
69162;DHT22;56269;51.738;21.652;2024-02-21T15:13:24;6.70;99.99
69162;DHT22;56269;51.738;21.652;2024-02-21T15:15:51;6.67;99.99
69162;DHT22;56269;51.738;21.652;2024-02-21T15:18:18;6.67;99.99
69162;DHT22;56269;51.738;21.652;2024-02-21T15:20:44;6.61;99.99
69162;DHT22;56269;51.738;21.652;2024-02-21T15:23:11;6.61;99.99
69162;DHT22;56269;51.738;21.652;2024-02-21T15:25:37;6.58;99.99
69162;DHT22;56269;51.738;21.652;2024-02-21T15:28:04;6.58;99.99
69162;DHT22;56269;51.738;21.652;2024-02-21T15:30:30;6.57;99.99
69162;DHT22;56269;51.738;21.652;2024-02-21T15:32:58;6.57;99.99
69162;DHT22;56269;51.738;21.652;2024-02-21T15:35:28;6.52;99.99